createdAt,value
2018-07-25T00:01:53.732Z,21.20
2018-07-25T00:04:23.455Z,21.31
2018-07-25T00:06:53.080Z,21.22
2018-07-25T00:09:27.872Z,21.22
2018-07-25T00:11:57.569Z,21.64
2018-07-25T00:14:27.179Z,21.77
2018-07-25T00:16:56.972Z,21.95
2018-07-25T00:19:27.008Z,21.70
2018-07-25T00:21:56.739Z,21.69
2018-07-25T00:24:26.494Z,21.60
2018-07-25T00:26:56.300Z,21.76
2018-07-25T00:29:26.001Z,22.04
2018-07-25T00:31:55.630Z,22.11
2018-07-25T00:34:25.356Z,21.98
2018-07-25T00:36:55.105Z,21.85
2018-07-25T00:39:24.830Z,21.70
2018-07-25T00:41:54.574Z,22.01
2018-07-25T00:44:24.256Z,21.93
2018-07-25T00:46:54.094Z,21.47
2018-07-25T00:49:23.841Z,21.28
2018-07-25T00:51:53.520Z,21.06
2018-07-25T00:54:23.266Z,21.29
2018-07-25T00:56:53.004Z,21.60
2018-07-25T00:59:23.192Z,20.50
2018-07-25T01:01:52.958Z,20.00
2018-07-25T01:04:22.595Z,19.98
2018-07-25T01:06:52.308Z,19.89
2018-07-25T01:09:22.079Z,19.92
2018-07-25T01:11:51.780Z,20.26
2018-07-25T01:14:21.967Z,20.45
2018-07-25T01:16:51.831Z,20.38
2018-07-25T01:19:21.406Z,20.36
2018-07-25T01:21:51.029Z,20.33
2018-07-25T01:24:20.800Z,20.70
2018-07-25T01:26:50.557Z,20.65
2018-07-25T01:29:20.985Z,20.37
2018-07-25T01:31:50.784Z,20.42
2018-07-25T01:34:20.552Z,20.52
2018-07-25T01:36:50.431Z,20.84
2018-07-25T01:39:20.214Z,20.70
2018-07-25T01:41:49.928Z,20.49
2018-07-25T01:44:19.651Z,20.18
2018-07-25T01:46:49.468Z,19.81
2018-07-25T01:49:19.057Z,20.07
2018-07-25T01:51:48.759Z,19.93
2018-07-25T01:54:18.459Z,19.89
2018-07-25T01:56:48.311Z,20.02
2018-07-25T01:59:19.023Z,19.95
2018-07-25T02:01:48.677Z,20.30
2018-07-25T02:04:18.290Z,20.67
2018-07-25T02:06:47.947Z,21.03
2018-07-25T02:09:17.730Z,21.19
2018-07-25T02:11:47.453Z,21.34
2018-07-25T02:14:17.140Z,21.50
2018-07-25T02:16:46.973Z,21.58
2018-07-25T02:19:16.815Z,21.28
2018-07-25T02:21:46.562Z,21.25
2018-07-25T02:24:16.604Z,20.90
2018-07-25T02:26:46.360Z,20.69
2018-07-25T02:29:16.061Z,21.01
2018-07-25T02:31:45.748Z,21.34
2018-07-25T02:34:20.449Z,21.43
2018-07-25T02:36:50.977Z,21.59
2018-07-25T02:39:21.205Z,21.45
2018-07-25T02:41:50.971Z,21.34
2018-07-25T02:44:20.698Z,21.41
2018-07-25T02:46:50.443Z,21.43
2018-07-25T02:49:20.180Z,21.24
2018-07-25T02:51:50.010Z,21.42
2018-07-25T02:54:19.760Z,21.39
2018-07-25T02:56:49.378Z,21.42
2018-07-25T02:59:19.121Z,21.12
2018-07-25T03:01:48.882Z,21.17
2018-07-25T03:04:18.607Z,21.33
2018-07-25T03:06:48.347Z,20.45
2018-07-25T03:09:17.962Z,20.45
2018-07-25T03:11:47.712Z,19.95
2018-07-25T03:14:17.473Z,19.89
2018-07-25T03:16:47.349Z,20.14
2018-07-25T03:19:17.675Z,20.09
2018-07-25T03:21:47.519Z,19.83
2018-07-25T03:24:17.391Z,19.99
2018-07-25T03:26:47.265Z,20.36
2018-07-25T03:29:17.049Z,20.23
2018-07-25T03:31:46.835Z,20.48
2018-07-25T03:34:16.612Z,20.65
2018-07-25T03:36:46.289Z,20.71
2018-07-25T03:39:16.073Z,20.71
2018-07-25T03:41:45.674Z,20.93
2018-07-25T03:44:15.432Z,21.09
2018-07-25T03:46:45.198Z,21.37
2018-07-25T03:49:14.808Z,21.57
2018-07-25T03:51:44.478Z,21.67
2018-07-25T03:54:14.066Z,21.66
2018-07-25T03:56:43.724Z,21.58
2018-07-25T03:59:13.454Z,20.99
2018-07-25T04:01:43.616Z,21.13
2018-07-25T04:04:13.321Z,20.96
2018-07-25T04:06:43.144Z,21.32
2018-07-25T04:09:12.765Z,21.84
2018-07-25T04:11:42.565Z,21.49
2018-07-25T04:14:12.343Z,21.94
2018-07-25T04:16:41.986Z,22.07
2018-07-25T04:19:12.054Z,22.27
2018-07-25T04:21:41.695Z,21.98
2018-07-25T04:24:11.446Z,21.88
2018-07-25T04:26:41.061Z,21.78
2018-07-25T04:29:11.048Z,21.86
2018-07-25T04:31:40.798Z,21.72
2018-07-25T04:34:10.713Z,21.71
2018-07-25T04:36:40.389Z,21.30
2018-07-25T04:39:12.637Z,21.47
2018-07-25T04:41:42.811Z,21.36
2018-07-25T04:44:12.633Z,21.55
2018-07-25T04:46:42.546Z,20.96
2018-07-25T04:49:13.286Z,21.23
2018-07-25T04:51:43.031Z,21.12
2018-07-25T04:54:12.780Z,21.20
2018-07-25T04:56:42.467Z,20.92
2018-07-25T04:59:12.126Z,21.31
2018-07-25T05:01:41.831Z,21.29
2018-07-25T05:04:11.709Z,21.60
2018-07-25T05:06:41.404Z,21.86
2018-07-25T05:09:11.765Z,21.57
2018-07-25T05:11:41.457Z,21.69
2018-07-25T05:14:11.144Z,22.13
2018-07-25T05:16:40.672Z,21.81
2018-07-25T05:19:10.430Z,22.28
2018-07-25T05:21:40.171Z,22.07
2018-07-25T05:24:10.864Z,22.40
2018-07-25T05:26:41.054Z,22.67
2018-07-25T05:29:11.957Z,22.88
2018-07-25T05:31:41.875Z,22.67
2018-07-25T05:34:11.764Z,22.67
2018-07-25T05:36:41.360Z,22.86
2018-07-25T05:39:13.476Z,23.05
2018-07-25T05:41:43.716Z,22.97
2018-07-25T05:44:13.492Z,22.91
2018-07-25T05:46:43.142Z,22.26
2018-07-25T05:49:14.782Z,22.60
2018-07-25T05:51:44.531Z,22.94
2018-07-25T05:54:14.280Z,22.88
2018-07-25T05:56:44.903Z,23.19
2018-07-25T05:59:15.676Z,23.21
2018-07-25T06:01:45.439Z,23.30
2018-07-25T06:04:15.117Z,23.04
2018-07-25T06:06:44.957Z,22.13
2018-07-25T06:09:14.728Z,21.76
2018-07-25T06:11:44.913Z,21.77
2018-07-25T06:14:14.626Z,21.94
2018-07-25T06:16:44.393Z,21.50
2018-07-25T06:19:14.241Z,22.09
2018-07-25T06:21:44.024Z,21.48
2018-07-25T06:24:13.760Z,22.25
2018-07-25T06:26:43.469Z,22.19
2018-07-25T06:29:13.151Z,21.65
2018-07-25T06:31:42.906Z,21.47
2018-07-25T06:34:12.763Z,21.58
2018-07-25T06:36:42.641Z,22.03
2018-07-25T06:39:13.795Z,22.40
2018-07-25T06:41:43.571Z,22.51
2018-07-25T06:44:13.338Z,22.51
2018-07-25T06:46:43.060Z,23.13
2018-07-25T06:49:13.865Z,22.92
2018-07-25T06:51:43.584Z,23.44
2018-07-25T06:54:13.343Z,23.07
2018-07-25T06:56:43.078Z,22.75
2018-07-25T07:02:19.033Z,23.21
2018-07-25T07:04:48.760Z,23.16
2018-07-25T07:07:21.015Z,23.98
2018-07-25T07:09:51.517Z,24.28
2018-07-25T07:12:21.309Z,24.28
2018-07-25T07:14:51.042Z,24.38
2018-07-25T07:17:20.802Z,24.84
2018-07-25T07:19:50.441Z,25.16
2018-07-25T07:22:20.264Z,24.84
2018-07-25T07:24:50.092Z,24.90
2018-07-25T07:27:19.791Z,25.62
2018-07-25T07:29:49.543Z,25.34
2018-07-25T07:32:19.762Z,24.76
2018-07-25T07:34:49.474Z,25.00
2018-07-25T07:37:19.144Z,25.70
2018-07-25T07:39:48.850Z,25.79
2018-07-25T07:42:18.651Z,26.03
2018-07-25T07:44:52.102Z,26.09
2018-07-25T07:47:21.679Z,25.16
2018-07-25T07:49:52.282Z,25.24
2018-07-25T07:52:23.168Z,25.64
2018-07-25T07:54:52.772Z,26.57
2018-07-25T07:57:22.382Z,26.84
2018-07-25T07:59:52.599Z,26.74
2018-07-25T08:02:22.159Z,26.42
2018-07-25T08:04:51.803Z,27.52
2018-07-25T08:07:21.654Z,27.07
2018-07-25T08:09:51.796Z,26.48
2018-07-25T08:12:21.699Z,27.53
2018-07-25T08:14:56.876Z,27.48
2018-07-25T08:17:26.663Z,26.72
2018-07-25T08:19:56.505Z,27.29
2018-07-25T08:22:26.325Z,26.45
2018-07-25T08:24:56.149Z,27.06
2018-07-25T08:27:25.924Z,27.10
2018-07-25T08:29:55.687Z,26.89
2018-07-25T08:32:25.466Z,27.78
2018-07-25T08:34:55.744Z,28.41
2018-07-25T08:37:26.346Z,29.47
2018-07-25T08:39:56.517Z,30.47
2018-07-25T08:42:26.333Z,29.55
2018-07-25T08:44:56.054Z,30.15
2018-07-25T08:47:25.785Z,31.82
2018-07-25T08:49:55.592Z,30.72
2018-07-25T08:52:25.329Z,31.05
2018-07-25T08:54:55.890Z,31.66
2018-07-25T08:57:26.398Z,30.57
2018-07-25T08:59:58.476Z,31.67
2018-07-25T09:02:29.226Z,32.50
2018-07-25T09:04:59.561Z,32.85
2018-07-25T09:07:30.141Z,33.47
2018-07-25T09:10:02.437Z,32.27
2018-07-25T09:12:33.503Z,30.87
2018-07-25T09:15:03.712Z,32.38
2018-07-25T09:17:34.542Z,31.51
2018-07-25T09:20:09.061Z,31.14
2018-07-25T09:22:39.350Z,30.75
2018-07-25T09:25:09.844Z,30.90
2018-07-25T09:27:40.434Z,31.83
2018-07-25T09:30:11.794Z,32.80
2018-07-25T09:32:42.355Z,33.80
2018-07-25T09:35:13.426Z,33.39
2018-07-25T09:37:44.050Z,32.89
2018-07-25T09:40:14.715Z,34.13
2018-07-25T09:42:46.376Z,33.15
2018-07-25T09:45:16.907Z,33.07
2018-07-25T09:48:49.911Z,33.84
2018-07-25T09:51:23.555Z,33.12
2018-07-25T09:53:54.493Z,32.33
2018-07-25T09:56:28.391Z,32.55
2018-07-25T09:58:59.192Z,31.88
2018-07-25T10:01:29.389Z,31.25
2018-07-25T10:03:59.882Z,31.31
2018-07-25T10:06:33.342Z,31.94
2018-07-25T10:09:04.218Z,32.15
2018-07-25T10:11:34.991Z,33.27
2018-07-25T10:14:05.519Z,32.92
2018-07-25T10:16:36.561Z,31.68
2018-07-25T10:19:07.273Z,31.44
2018-07-25T10:21:37.905Z,31.88
2018-07-25T10:24:08.354Z,31.21
2018-07-25T10:26:39.661Z,30.68
2018-07-25T10:29:10.951Z,30.70
2018-07-25T10:31:42.008Z,29.80
2018-07-25T10:34:12.317Z,29.77
2018-07-25T10:36:42.365Z,30.32
2018-07-25T10:39:12.221Z,30.81
2018-07-25T10:41:42.474Z,31.03
2018-07-25T10:44:13.234Z,31.80
2018-07-25T10:46:44.026Z,32.36
2018-07-25T10:49:13.842Z,32.92
2018-07-25T10:51:43.581Z,33.42
2018-07-25T10:54:13.407Z,33.51
2018-07-25T10:56:43.945Z,32.69
2018-07-25T10:59:14.377Z,32.61
2018-07-25T11:01:45.073Z,32.79
2018-07-25T11:04:15.266Z,33.06
2018-07-25T11:06:46.176Z,32.72
2018-07-25T11:12:15.849Z,30.94
2018-07-25T11:14:45.702Z,29.61
2018-07-25T11:17:16.028Z,28.92
2018-07-25T11:19:45.737Z,28.74
2018-07-25T11:22:15.482Z,28.86
2018-07-25T11:24:45.363Z,28.75
2018-07-25T11:27:15.320Z,29.95
2018-07-25T11:29:44.988Z,29.69
2018-07-25T11:32:14.992Z,29.88
2018-07-25T11:34:44.778Z,30.23
2018-07-25T11:37:15.391Z,31.09
2018-07-25T11:39:45.145Z,32.74
2018-07-25T11:42:14.838Z,33.33
2018-07-25T11:44:44.436Z,33.51
2018-07-25T11:47:14.353Z,31.93
2018-07-25T11:49:44.105Z,30.09
2018-07-25T11:52:13.746Z,29.07
2018-07-25T11:54:43.554Z,29.50
2018-07-25T11:57:14.008Z,30.26
2018-07-25T11:59:43.907Z,30.12
2018-07-25T12:02:13.673Z,31.08
2018-07-25T12:04:43.519Z,31.23
2018-07-25T12:07:13.311Z,32.03
2018-07-25T12:09:44.006Z,32.42
2018-07-25T12:12:13.914Z,33.17
2018-07-25T12:14:43.707Z,33.83
2018-07-25T12:17:13.777Z,34.46
2018-07-25T12:19:43.468Z,33.22
2018-07-25T12:22:13.191Z,33.77
2018-07-25T12:24:43.174Z,32.24
2018-07-25T12:27:12.978Z,32.86
2018-07-25T12:29:42.714Z,32.88
2018-07-25T12:32:12.516Z,32.60
2018-07-25T12:34:42.318Z,32.46
2018-07-25T12:37:12.156Z,31.78
2018-07-25T12:39:42.305Z,31.80
2018-07-25T12:42:12.070Z,30.84
2018-07-25T12:44:42.214Z,31.38
2018-07-25T12:47:11.846Z,31.77
2018-07-25T12:49:41.476Z,30.62
2018-07-25T12:52:11.715Z,30.32
2018-07-25T12:54:41.586Z,30.11
2018-07-25T12:57:12.431Z,30.99
2018-07-25T12:59:42.956Z,30.46
2018-07-25T13:02:12.709Z,29.81
2018-07-25T13:04:42.477Z,29.54
2018-07-25T13:07:13.361Z,29.87
2018-07-25T13:09:43.126Z,29.34
2018-07-25T13:12:13.543Z,29.35
2018-07-25T13:14:43.673Z,28.90
2018-07-25T13:17:14.400Z,28.55
2018-07-25T13:19:44.414Z,28.55
2018-07-25T13:22:14.264Z,29.17
2018-07-25T13:24:44.181Z,28.77
2018-07-25T13:27:13.953Z,28.83
2018-07-25T13:29:43.785Z,29.36
2018-07-25T13:32:13.740Z,28.90
2018-07-25T13:34:43.498Z,29.29
2018-07-25T13:37:13.557Z,29.42
2018-07-25T13:39:43.545Z,29.60
2018-07-25T13:42:13.809Z,29.01
2018-07-25T13:44:43.491Z,27.83
2018-07-25T13:47:13.274Z,27.28
2018-07-25T13:49:43.096Z,26.39
2018-07-25T13:52:13.440Z,25.84
2018-07-25T13:54:43.340Z,24.97
2018-07-25T13:57:13.235Z,24.99
2018-07-25T13:59:43.040Z,25.14
2018-07-25T14:02:13.500Z,24.69
2018-07-25T14:04:43.285Z,24.67
2018-07-25T14:07:13.522Z,24.70
2018-07-25T14:09:43.238Z,24.61
2018-07-25T14:12:13.441Z,25.24
2018-07-25T14:14:43.233Z,25.52
2018-07-25T14:17:13.218Z,25.31
2018-07-25T14:19:42.892Z,25.77
2018-07-25T14:22:12.824Z,25.22
2018-07-25T14:24:42.594Z,25.27
2018-07-25T14:27:12.464Z,25.75
2018-07-25T14:29:42.402Z,25.15
2018-07-25T14:32:12.237Z,25.27
2018-07-25T14:34:41.946Z,25.83
2018-07-25T14:37:11.704Z,26.13
2018-07-25T14:39:41.604Z,26.33
2018-07-25T14:42:11.405Z,26.16
2018-07-25T14:44:41.663Z,26.66
2018-07-25T14:47:11.476Z,26.39
2018-07-25T14:49:41.260Z,26.50
2018-07-25T14:52:10.958Z,27.10
2018-07-25T14:54:40.830Z,27.02
2018-07-25T14:57:10.718Z,27.20
2018-07-25T14:59:40.629Z,27.46
2018-07-25T15:02:10.941Z,27.79
2018-07-25T15:04:40.558Z,27.61
2018-07-25T15:07:10.454Z,27.37
2018-07-25T15:09:40.281Z,27.68
2018-07-25T15:12:10.272Z,27.68
2018-07-25T15:14:40.960Z,27.99
2018-07-25T15:17:10.931Z,27.54
2018-07-25T15:19:40.809Z,28.12
2018-07-25T15:22:10.610Z,28.16
2018-07-25T15:24:40.416Z,27.52
2018-07-25T15:27:11.107Z,27.70
2018-07-25T15:29:41.143Z,27.04
2018-07-25T15:32:11.070Z,27.26
2018-07-25T15:34:40.928Z,27.47
2018-07-25T15:37:12.428Z,27.43
2018-07-25T15:39:42.207Z,27.69
2018-07-25T15:42:11.963Z,27.54
2018-07-25T15:44:42.082Z,27.94
2018-07-25T15:47:13.099Z,27.37
2018-07-25T15:49:42.885Z,26.36
2018-07-25T15:52:12.697Z,27.01
2018-07-25T15:54:42.470Z,26.76
2018-07-25T15:57:12.727Z,27.27
2018-07-25T15:59:42.351Z,26.95
2018-07-25T16:02:12.154Z,27.28
2018-07-25T16:04:41.911Z,26.63
2018-07-25T16:07:11.722Z,26.47
2018-07-25T16:09:41.624Z,26.91
2018-07-25T16:12:11.440Z,26.53
2018-07-25T16:14:41.317Z,25.97
2018-07-25T16:17:11.516Z,25.94
2018-07-25T16:19:41.318Z,25.86
2018-07-25T16:22:11.077Z,25.71
2018-07-25T16:24:40.848Z,25.38
2018-07-25T16:27:10.761Z,25.63
2018-07-25T16:29:40.509Z,25.72
2018-07-25T16:32:10.446Z,25.52
2018-07-25T16:34:40.063Z,25.41
2018-07-25T16:37:09.834Z,25.35
2018-07-25T16:39:39.784Z,25.48
2018-07-25T16:42:09.564Z,25.30
2018-07-25T16:44:39.283Z,25.42
2018-07-25T16:47:09.137Z,25.64
2018-07-25T16:49:39.047Z,25.65
2018-07-25T16:52:08.831Z,25.29
2018-07-25T16:54:38.547Z,25.23
2018-07-25T16:57:08.418Z,25.63
2018-07-25T16:59:38.226Z,25.42
2018-07-25T17:02:07.989Z,25.57
2018-07-25T17:04:37.970Z,25.88
2018-07-25T17:07:08.457Z,25.40
2018-07-25T17:09:38.336Z,25.49
2018-07-25T17:12:08.093Z,25.21
2018-07-25T17:14:37.921Z,24.99
2018-07-25T17:17:07.681Z,25.01
2018-07-25T17:19:39.645Z,24.85
2018-07-25T17:22:17.384Z,24.86
2018-07-25T17:24:56.929Z,25.11
2018-07-25T17:27:26.949Z,25.14
2018-07-25T17:30:03.216Z,24.95
2018-07-25T17:32:33.386Z,24.84
2018-07-25T17:35:03.925Z,24.97
2018-07-25T17:40:33.951Z,25.24
2018-07-25T17:43:10.644Z,25.28
2018-07-25T17:45:43.222Z,24.92
2018-07-25T17:48:13.078Z,24.19
2018-07-25T17:50:47.683Z,23.82
2018-07-25T17:53:18.019Z,23.97
2018-07-25T17:55:49.816Z,24.33
2018-07-25T17:58:23.216Z,24.11
2018-07-25T18:00:54.622Z,23.74
2018-07-25T18:03:25.280Z,23.81
2018-07-25T18:05:55.764Z,23.72
2018-07-25T18:08:26.563Z,23.67
2018-07-25T18:10:56.590Z,23.72
2018-07-25T18:13:31.690Z,23.83
2018-07-25T18:16:01.676Z,23.66
2018-07-25T18:18:32.106Z,23.81
2018-07-25T18:21:02.622Z,24.18
2018-07-25T18:23:33.257Z,24.41
2018-07-25T18:26:03.186Z,24.54
2018-07-25T18:28:34.156Z,24.63
2018-07-25T18:31:04.352Z,24.67
2018-07-25T18:33:35.691Z,24.50
2018-07-25T18:36:05.479Z,23.94
2018-07-25T18:38:36.049Z,23.59
2018-07-25T18:41:05.821Z,23.81
2018-07-25T18:43:35.611Z,24.01
2018-07-25T18:46:05.496Z,24.23
2018-07-25T18:51:23.173Z,24.34
2018-07-25T18:56:30.776Z,24.29
2018-07-25T18:59:01.040Z,24.20
2018-07-25T19:01:30.797Z,24.25
2018-07-25T19:04:00.678Z,24.29
2018-07-25T19:06:30.350Z,24.22
2018-07-25T19:09:00.074Z,24.24
2018-07-25T19:11:29.831Z,24.19
2018-07-25T19:14:04.407Z,24.17
2018-07-25T19:19:39.149Z,23.74
2018-07-25T19:22:09.694Z,23.83
2018-07-25T19:24:40.040Z,24.06
2018-07-25T19:53:15.034Z,23.95
2018-07-25T19:55:44.616Z,23.92
2018-07-25T19:58:14.464Z,23.87
2018-07-25T23:44:24.789Z,21.18
2018-07-25T23:46:54.501Z,21.20
2018-07-25T23:49:24.371Z,21.57
2018-07-25T23:51:54.717Z,21.50
2018-07-25T23:54:24.537Z,21.58
2018-07-25T23:56:54.380Z,21.67
2018-07-25T23:59:24.103Z,21.71
